sensor_id;sensor_type;location;lat;lon;timestamp;P1;durP1;ratioP1;P2;durP2;ratioP2
19566;SDS011;9930;49.240;8.548;2023-12-20T00:01:15;6.75;;;6.05;;
19566;SDS011;9930;49.240;8.548;2023-12-20T00:03:41;6.05;;;5.45;;
19566;SDS011;9930;49.240;8.548;2023-12-20T00:06:09;6.03;;;5.53;;
19566;SDS011;9930;49.240;8.548;2023-12-20T00:08:40;6.38;;;5.78;;
19566;SDS011;9930;49.240;8.548;2023-12-20T00:11:09;5.85;;;5.25;;
19566;SDS011;9930;49.240;8.548;2023-12-20T00:13:36;6.18;;;5.60;;
19566;SDS011;9930;49.240;8.548;2023-12-20T00:16:05;6.22;;;5.53;;
19566;SDS011;9930;49.240;8.548;2023-12-20T00:18:33;6.57;;;5.97;;
19566;SDS011;9930;49.240;8.548;2023-12-20T00:21:00;6.65;;;5.95;;
19566;SDS011;9930;49.240;8.548;2023-12-20T00:23:26;6.53;;;5.90;;
19566;SDS011;9930;49.240;8.548;2023-12-20T00:25:54;5.88;;;5.38;;
19566;SDS011;9930;49.240;8.548;2023-12-20T00:28:19;5.90;;;5.30;;
19566;SDS011;9930;49.240;8.548;2023-12-20T00:30:45;5.78;;;5.28;;
19566;SDS011;9930;49.240;8.548;2023-12-20T00:33:11;5.75;;;5.25;;
19566;SDS011;9930;49.240;8.548;2023-12-20T00:35:39;6.13;;;5.55;;
19566;SDS011;9930;49.240;8.548;2023-12-20T00:38:07;6.18;;;5.57;;
19566;SDS011;9930;49.240;8.548;2023-12-20T00:40:34;5.93;;;5.32;;
19566;SDS011;9930;49.240;8.548;2023-12-20T00:43:00;5.85;;;5.25;;
19566;SDS011;9930;49.240;8.548;2023-12-20T00:45:31;6.28;;;5.40;;
19566;SDS011;9930;49.240;8.548;2023-12-20T00:47:57;7.10;;;6.40;;
19566;SDS011;9930;49.240;8.548;2023-12-20T00:50:24;8.52;;;7.72;;
19566;SDS011;9930;49.240;8.548;2023-12-20T00:52:49;8.15;;;7.35;;
19566;SDS011;9930;49.240;8.548;2023-12-20T00:55:17;7.10;;;6.40;;
19566;SDS011;9930;49.240;8.548;2023-12-20T00:57:46;7.22;;;6.53;;
19566;SDS011;9930;49.240;8.548;2023-12-20T01:00:12;6.82;;;6.13;;
19566;SDS011;9930;49.240;8.548;2023-12-20T01:02:44;7.82;;;7.13;;
19566;SDS011;9930;49.240;8.548;2023-12-20T01:05:11;7.18;;;6.47;;
19566;SDS011;9930;49.240;8.548;2023-12-20T01:07:37;6.60;;;6.00;;
19566;SDS011;9930;49.240;8.548;2023-12-20T01:10:03;6.43;;;5.82;;
19566;SDS011;9930;49.240;8.548;2023-12-20T01:12:30;6.10;;;5.60;;
19566;SDS011;9930;49.240;8.548;2023-12-20T01:14:56;7.80;;;6.32;;
19566;SDS011;9930;49.240;8.548;2023-12-20T01:17:22;6.60;;;5.90;;
19566;SDS011;9930;49.240;8.548;2023-12-20T01:19:50;6.22;;;5.63;;
19566;SDS011;9930;49.240;8.548;2023-12-20T01:22:18;6.25;;;5.65;;
19566;SDS011;9930;49.240;8.548;2023-12-20T01:24:44;5.60;;;5.10;;
19566;SDS011;9930;49.240;8.548;2023-12-20T01:27:09;6.82;;;4.88;;
19566;SDS011;9930;49.240;8.548;2023-12-20T01:29:37;6.15;;;5.43;;
19566;SDS011;9930;49.240;8.548;2023-12-20T01:32:03;6.15;;;5.38;;
19566;SDS011;9930;49.240;8.548;2023-12-20T01:34:33;5.53;;;5.03;;
19566;SDS011;9930;49.240;8.548;2023-12-20T01:37:01;5.20;;;4.70;;
19566;SDS011;9930;49.240;8.548;2023-12-20T01:39:27;5.22;;;4.72;;
19566;SDS011;9930;49.240;8.548;2023-12-20T01:41:53;5.07;;;4.63;;
19566;SDS011;9930;49.240;8.548;2023-12-20T01:44:19;5.22;;;4.72;;
19566;SDS011;9930;49.240;8.548;2023-12-20T01:46:44;5.05;;;4.57;;
19566;SDS011;9930;49.240;8.548;2023-12-20T01:49:11;5.63;;;5.00;;
19566;SDS011;9930;49.240;8.548;2023-12-20T01:51:40;5.07;;;4.57;;
19566;SDS011;9930;49.240;8.548;2023-12-20T01:54:06;6.47;;;5.00;;
19566;SDS011;9930;49.240;8.548;2023-12-20T01:56:32;6.05;;;4.85;;
19566;SDS011;9930;49.240;8.548;2023-12-20T01:59:01;6.53;;;5.50;;
19566;SDS011;9930;49.240;8.548;2023-12-20T02:01:27;4.78;;;4.38;;
19566;SDS011;9930;49.240;8.548;2023-12-20T02:03:53;5.20;;;4.70;;
19566;SDS011;9930;49.240;8.548;2023-12-20T02:06:23;4.72;;;4.30;;
19566;SDS011;9930;49.240;8.548;2023-12-20T02:08:53;5.05;;;4.55;;
19566;SDS011;9930;49.240;8.548;2023-12-20T02:11:19;4.68;;;4.20;;
19566;SDS011;9930;49.240;8.548;2023-12-20T02:13:48;5.18;;;4.60;;
19566;SDS011;9930;49.240;8.548;2023-12-20T02:16:14;4.80;;;4.30;;
19566;SDS011;9930;49.240;8.548;2023-12-20T02:18:40;5.55;;;4.68;;
19566;SDS011;9930;49.240;8.548;2023-12-20T02:21:10;5.65;;;4.35;;
19566;SDS011;9930;49.240;8.548;2023-12-20T02:23:38;4.57;;;4.15;;
19566;SDS011;9930;49.240;8.548;2023-12-20T02:26:04;4.43;;;4.00;;
19566;SDS011;9930;49.240;8.548;2023-12-20T02:28:34;5.10;;;4.60;;
19566;SDS011;9930;49.240;8.548;2023-12-20T02:31:06;4.20;;;3.83;;
19566;SDS011;9930;49.240;8.548;2023-12-20T02:33:32;4.95;;;4.45;;
19566;SDS011;9930;49.240;8.548;2023-12-20T02:35:58;4.60;;;4.20;;
19566;SDS011;9930;49.240;8.548;2023-12-20T02:38:26;4.65;;;4.22;;
19566;SDS011;9930;49.240;8.548;2023-12-20T02:40:53;4.57;;;4.13;;
19566;SDS011;9930;49.240;8.548;2023-12-20T02:43:19;4.38;;;3.97;;
19566;SDS011;9930;49.240;8.548;2023-12-20T02:45:47;4.57;;;3.90;;
19566;SDS011;9930;49.240;8.548;2023-12-20T02:48:15;4.53;;;3.85;;
19566;SDS011;9930;49.240;8.548;2023-12-20T02:50:40;4.45;;;4.03;;
19566;SDS011;9930;49.240;8.548;2023-12-20T02:53:06;4.15;;;3.78;;
19566;SDS011;9930;49.240;8.548;2023-12-20T02:55:35;4.40;;;4.00;;
19566;SDS011;9930;49.240;8.548;2023-12-20T02:58:01;4.80;;;4.25;;
19566;SDS011;9930;49.240;8.548;2023-12-20T03:00:26;3.88;;;3.58;;
19566;SDS011;9930;49.240;8.548;2023-12-20T03:02:52;3.60;;;3.30;;
19566;SDS011;9930;49.240;8.548;2023-12-20T03:05:17;4.30;;;3.75;;
19566;SDS011;9930;49.240;8.548;2023-12-20T03:07:45;3.30;;;3.10;;
19566;SDS011;9930;49.240;8.548;2023-12-20T03:10:11;3.75;;;3.45;;
19566;SDS011;9930;49.240;8.548;2023-12-20T03:12:37;3.97;;;3.67;;
19566;SDS011;9930;49.240;8.548;2023-12-20T03:15:03;3.60;;;3.30;;
19566;SDS011;9930;49.240;8.548;2023-12-20T03:17:29;4.82;;;3.45;;
19566;SDS011;9930;49.240;8.548;2023-12-20T03:19:54;3.72;;;3.40;;
19566;SDS011;9930;49.240;8.548;2023-12-20T03:22:22;3.60;;;3.30;;
19566;SDS011;9930;49.240;8.548;2023-12-20T03:24:48;3.50;;;3.20;;
19566;SDS011;9930;49.240;8.548;2023-12-20T03:27:14;3.92;;;3.30;;
19566;SDS011;9930;49.240;8.548;2023-12-20T03:29:39;3.50;;;3.20;;
19566;SDS011;9930;49.240;8.548;2023-12-20T03:32:05;3.38;;;3.08;;
19566;SDS011;9930;49.240;8.548;2023-12-20T03:34:33;4.07;;;3.45;;
19566;SDS011;9930;49.240;8.548;2023-12-20T03:36:59;4.28;;;3.75;;
19566;SDS011;9930;49.240;8.548;2023-12-20T03:39:27;3.42;;;3.13;;
19566;SDS011;9930;49.240;8.548;2023-12-20T03:41:55;3.58;;;3.28;;
19566;SDS011;9930;49.240;8.548;2023-12-20T03:44:23;3.25;;;3.00;;
19566;SDS011;9930;49.240;8.548;2023-12-20T03:46:51;3.00;;;2.80;;
19566;SDS011;9930;49.240;8.548;2023-12-20T03:49:17;3.70;;;3.40;;
19566;SDS011;9930;49.240;8.548;2023-12-20T03:51:48;3.58;;;3.28;;
19566;SDS011;9930;49.240;8.548;2023-12-20T03:54:13;3.50;;;3.20;;
19566;SDS011;9930;49.240;8.548;2023-12-20T03:56:39;3.85;;;3.40;;
19566;SDS011;9930;49.240;8.548;2023-12-20T03:59:05;3.33;;;2.92;;
19566;SDS011;9930;49.240;8.548;2023-12-20T04:01:31;3.40;;;3.10;;
19566;SDS011;9930;49.240;8.548;2023-12-20T04:03:57;3.58;;;3.28;;
19566;SDS011;9930;49.240;8.548;2023-12-20T04:06:25;3.05;;;2.85;;
19566;SDS011;9930;49.240;8.548;2023-12-20T04:08:53;3.47;;;3.17;;
19566;SDS011;9930;49.240;8.548;2023-12-20T04:11:19;3.47;;;3.17;;
19566;SDS011;9930;49.240;8.548;2023-12-20T04:13:44;3.45;;;3.15;;
19566;SDS011;9930;49.240;8.548;2023-12-20T04:16:10;3.03;;;2.83;;
19566;SDS011;9930;49.240;8.548;2023-12-20T04:18:36;3.40;;;3.10;;
19566;SDS011;9930;49.240;8.548;2023-12-20T04:21:01;3.53;;;3.22;;
19566;SDS011;9930;49.240;8.548;2023-12-20T04:23:30;3.85;;;3.45;;
19566;SDS011;9930;49.240;8.548;2023-12-20T04:25:56;3.35;;;3.05;;
19566;SDS011;9930;49.240;8.548;2023-12-20T04:28:22;3.65;;;3.35;;
19566;SDS011;9930;49.240;8.548;2023-12-20T04:30:50;3.25;;;2.95;;
19566;SDS011;9930;49.240;8.548;2023-12-20T04:33:16;3.22;;;2.92;;
19566;SDS011;9930;49.240;8.548;2023-12-20T04:35:41;3.05;;;2.75;;
19566;SDS011;9930;49.240;8.548;2023-12-20T04:38:11;3.50;;;3.20;;
19566;SDS011;9930;49.240;8.548;2023-12-20T04:40:36;3.05;;;2.85;;
19566;SDS011;9930;49.240;8.548;2023-12-20T04:43:02;3.53;;;3.22;;
19566;SDS011;9930;49.240;8.548;2023-12-20T04:45:28;2.95;;;2.75;;
19566;SDS011;9930;49.240;8.548;2023-12-20T04:47:54;3.20;;;2.90;;
19566;SDS011;9930;49.240;8.548;2023-12-20T04:50:23;3.10;;;2.90;;
19566;SDS011;9930;49.240;8.548;2023-12-20T04:52:48;2.75;;;2.55;;
19566;SDS011;9930;49.240;8.548;2023-12-20T04:55:14;2.90;;;2.70;;
19566;SDS011;9930;49.240;8.548;2023-12-20T04:57:40;2.88;;;2.67;;
19566;SDS011;9930;49.240;8.548;2023-12-20T05:00:08;2.83;;;2.63;;
19566;SDS011;9930;49.240;8.548;2023-12-20T05:02:35;2.60;;;2.40;;
19566;SDS011;9930;49.240;8.548;2023-12-20T05:05:04;2.50;;;2.30;;
19566;SDS011;9930;49.240;8.548;2023-12-20T05:07:31;2.55;;;2.35;;
19566;SDS011;9930;49.240;8.548;2023-12-20T05:09:59;2.58;;;2.38;;
19566;SDS011;9930;49.240;8.548;2023-12-20T05:12:27;2.50;;;2.35;;
19566;SDS011;9930;49.240;8.548;2023-12-20T05:14:54;2.08;;;1.98;;
19566;SDS011;9930;49.240;8.548;2023-12-20T05:17:22;2.40;;;2.10;;
19566;SDS011;9930;49.240;8.548;2023-12-20T05:19:48;2.25;;;2.05;;
19566;SDS011;9930;49.240;8.548;2023-12-20T05:22:17;1.83;;;1.73;;
19566;SDS011;9930;49.240;8.548;2023-12-20T05:24:49;2.20;;;2.10;;
19566;SDS011;9930;49.240;8.548;2023-12-20T05:27:14;2.20;;;2.10;;
19566;SDS011;9930;49.240;8.548;2023-12-20T05:29:40;2.00;;;1.90;;
19566;SDS011;9930;49.240;8.548;2023-12-20T05:32:08;2.50;;;2.30;;
19566;SDS011;9930;49.240;8.548;2023-12-20T05:34:35;2.25;;;2.05;;
19566;SDS011;9930;49.240;8.548;2023-12-20T05:37:01;2.25;;;2.13;;
19566;SDS011;9930;49.240;8.548;2023-12-20T05:39:27;2.63;;;2.40;;
19566;SDS011;9930;49.240;8.548;2023-12-20T05:41:58;2.30;;;2.20;;
19566;SDS011;9930;49.240;8.548;2023-12-20T05:44:25;2.17;;;2.08;;
19566;SDS011;9930;49.240;8.548;2023-12-20T05:46:54;2.00;;;1.90;;
19566;SDS011;9930;49.240;8.548;2023-12-20T05:49:21;2.85;;;2.65;;
19566;SDS011;9930;49.240;8.548;2023-12-20T05:51:47;2.67;;;2.47;;
19566;SDS011;9930;49.240;8.548;2023-12-20T05:54:16;2.75;;;2.53;;
19566;SDS011;9930;49.240;8.548;2023-12-20T05:56:41;3.00;;;2.80;;
19566;SDS011;9930;49.240;8.548;2023-12-20T05:59:07;3.20;;;2.90;;
19566;SDS011;9930;49.240;8.548;2023-12-20T06:01:33;3.15;;;2.95;;
19566;SDS011;9930;49.240;8.548;2023-12-20T06:03:59;2.85;;;2.65;;
19566;SDS011;9930;49.240;8.548;2023-12-20T06:06:24;2.65;;;2.45;;
19566;SDS011;9930;49.240;8.548;2023-12-20T06:08:52;2.50;;;2.30;;
19566;SDS011;9930;49.240;8.548;2023-12-20T06:11:20;2.60;;;2.40;;
19566;SDS011;9930;49.240;8.548;2023-12-20T06:13:48;2.40;;;2.20;;
19566;SDS011;9930;49.240;8.548;2023-12-20T06:16:17;2.42;;;2.22;;
19566;SDS011;9930;49.240;8.548;2023-12-20T06:18:43;2.50;;;2.30;;
19566;SDS011;9930;49.240;8.548;2023-12-20T06:21:08;2.47;;;2.28;;
19566;SDS011;9930;49.240;8.548;2023-12-20T06:23:40;2.20;;;2.10;;
19566;SDS011;9930;49.240;8.548;2023-12-20T06:26:06;2.30;;;2.10;;
19566;SDS011;9930;49.240;8.548;2023-12-20T06:28:34;2.30;;;2.10;;
19566;SDS011;9930;49.240;8.548;2023-12-20T06:31:03;2.47;;;2.25;;
19566;SDS011;9930;49.240;8.548;2023-12-20T06:33:30;2.55;;;2.35;;
19566;SDS011;9930;49.240;8.548;2023-12-20T06:35:58;2.60;;;2.40;;
19566;SDS011;9930;49.240;8.548;2023-12-20T06:38:26;2.88;;;2.67;;
19566;SDS011;9930;49.240;8.548;2023-12-20T06:40:54;2.67;;;2.40;;
19566;SDS011;9930;49.240;8.548;2023-12-20T06:43:23;2.40;;;2.20;;
19566;SDS011;9930;49.240;8.548;2023-12-20T06:45:49;2.50;;;2.30;;
19566;SDS011;9930;49.240;8.548;2023-12-20T06:48:16;2.65;;;2.45;;
19566;SDS011;9930;49.240;8.548;2023-12-20T06:50:41;2.67;;;2.47;;
19566;SDS011;9930;49.240;8.548;2023-12-20T06:53:10;3.10;;;2.83;;
19566;SDS011;9930;49.240;8.548;2023-12-20T06:55:36;3.20;;;3.00;;
19566;SDS011;9930;49.240;8.548;2023-12-20T06:58:03;3.40;;;3.15;;
19566;SDS011;9930;49.240;8.548;2023-12-20T07:00:29;2.95;;;2.75;;
19566;SDS011;9930;49.240;8.548;2023-12-20T07:02:56;3.00;;;2.80;;
19566;SDS011;9930;49.240;8.548;2023-12-20T07:05:24;3.03;;;2.83;;
19566;SDS011;9930;49.240;8.548;2023-12-20T07:07:50;3.35;;;3.15;;
19566;SDS011;9930;49.240;8.548;2023-12-20T07:10:16;3.13;;;2.92;;
19566;SDS011;9930;49.240;8.548;2023-12-20T07:12:41;3.63;;;3.33;;
19566;SDS011;9930;49.240;8.548;2023-12-20T07:15:08;3.08;;;2.88;;
19566;SDS011;9930;49.240;8.548;2023-12-20T07:17:37;3.60;;;3.30;;
19566;SDS011;9930;49.240;8.548;2023-12-20T07:20:06;4.25;;;3.83;;
19566;SDS011;9930;49.240;8.548;2023-12-20T07:22:36;5.25;;;4.75;;
19566;SDS011;9930;49.240;8.548;2023-12-20T07:25:02;6.15;;;5.63;;
19566;SDS011;9930;49.240;8.548;2023-12-20T07:27:28;6.65;;;6.05;;
19566;SDS011;9930;49.240;8.548;2023-12-20T07:29:55;7.20;;;6.50;;
19566;SDS011;9930;49.240;8.548;2023-12-20T07:32:23;6.82;;;6.18;;
19566;SDS011;9930;49.240;8.548;2023-12-20T07:34:49;6.57;;;5.97;;
19566;SDS011;9930;49.240;8.548;2023-12-20T07:37:14;6.75;;;6.15;;
19566;SDS011;9930;49.240;8.548;2023-12-20T07:39:40;6.20;;;5.70;;
19566;SDS011;9930;49.240;8.548;2023-12-20T07:42:07;6.07;;;5.57;;
19566;SDS011;9930;49.240;8.548;2023-12-20T07:44:34;6.03;;;5.53;;
19566;SDS011;9930;49.240;8.548;2023-12-20T07:47:03;5.65;;;5.25;;
19566;SDS011;9930;49.240;8.548;2023-12-20T07:49:30;5.82;;;5.32;;
19566;SDS011;9930;49.240;8.548;2023-12-20T07:51:56;5.65;;;5.20;;
19566;SDS011;9930;49.240;8.548;2023-12-20T07:54:22;5.22;;;4.80;;
19566;SDS011;9930;49.240;8.548;2023-12-20T07:56:48;4.72;;;4.32;;
19566;SDS011;9930;49.240;8.548;2023-12-20T07:59:14;5.70;;;5.20;;
19566;SDS011;9930;49.240;8.548;2023-12-20T08:01:40;5.13;;;4.72;;
19566;SDS011;9930;49.240;8.548;2023-12-20T08:04:07;5.60;;;5.10;;
19566;SDS011;9930;49.240;8.548;2023-12-20T08:06:33;5.28;;;4.78;;
19566;SDS011;9930;49.240;8.548;2023-12-20T08:09:01;5.10;;;4.53;;
19566;SDS011;9930;49.240;8.548;2023-12-20T08:11:27;4.45;;;4.05;;
19566;SDS011;9930;49.240;8.548;2023-12-20T08:13:54;3.78;;;3.47;;
19566;SDS011;9930;49.240;8.548;2023-12-20T08:16:20;3.50;;;3.20;;
19566;SDS011;9930;49.240;8.548;2023-12-20T08:18:50;3.55;;;3.25;;
19566;SDS011;9930;49.240;8.548;2023-12-20T08:21:18;2.50;;;2.30;;
19566;SDS011;9930;49.240;8.548;2023-12-20T08:23:47;3.10;;;2.80;;
19566;SDS011;9930;49.240;8.548;2023-12-20T08:26:18;3.65;;;2.55;;
19566;SDS011;9930;49.240;8.548;2023-12-20T08:28:48;3.75;;;2.83;;
19566;SDS011;9930;49.240;8.548;2023-12-20T08:31:14;3.08;;;2.88;;
19566;SDS011;9930;49.240;8.548;2023-12-20T08:33:44;3.22;;;2.53;;
19566;SDS011;9930;49.240;8.548;2023-12-20T08:36:11;2.83;;;2.53;;
19566;SDS011;9930;49.240;8.548;2023-12-20T08:38:38;2.90;;;2.70;;
19566;SDS011;9930;49.240;8.548;2023-12-20T08:41:04;2.80;;;2.40;;
19566;SDS011;9930;49.240;8.548;2023-12-20T08:43:33;2.80;;;2.60;;
19566;SDS011;9930;49.240;8.548;2023-12-20T08:46:02;3.40;;;2.60;;
19566;SDS011;9930;49.240;8.548;2023-12-20T08:48:28;3.90;;;2.85;;
19566;SDS011;9930;49.240;8.548;2023-12-20T08:50:54;2.85;;;2.50;;
19566;SDS011;9930;49.240;8.548;2023-12-20T08:53:22;3.08;;;2.40;;
19566;SDS011;9930;49.240;8.548;2023-12-20T08:55:48;2.78;;;2.53;;
19566;SDS011;9930;49.240;8.548;2023-12-20T08:58:14;2.13;;;1.92;;
19566;SDS011;9930;49.240;8.548;2023-12-20T09:00:40;2.92;;;2.20;;
19566;SDS011;9930;49.240;8.548;2023-12-20T09:03:05;2.60;;;2.30;;
19566;SDS011;9930;49.240;8.548;2023-12-20T09:05:32;2.22;;;2.03;;
19566;SDS011;9930;49.240;8.548;2023-12-20T09:07:58;2.17;;;1.90;;
19566;SDS011;9930;49.240;8.548;2023-12-20T09:10:28;2.15;;;1.95;;
19566;SDS011;9930;49.240;8.548;2023-12-20T09:12:54;2.35;;;1.63;;
19566;SDS011;9930;49.240;8.548;2023-12-20T09:15:23;2.50;;;1.80;;
19566;SDS011;9930;49.240;8.548;2023-12-20T09:17:54;2.10;;;1.90;;
19566;SDS011;9930;49.240;8.548;2023-12-20T09:20:19;4.40;;;1.77;;
19566;SDS011;9930;49.240;8.548;2023-12-20T09:22:48;5.40;;;2.10;;
19566;SDS011;9930;49.240;8.548;2023-12-20T09:25:14;3.00;;;1.60;;
19566;SDS011;9930;49.240;8.548;2023-12-20T09:27:47;3.58;;;2.15;;
19566;SDS011;9930;49.240;8.548;2023-12-20T09:30:13;3.15;;;2.05;;
19566;SDS011;9930;49.240;8.548;2023-12-20T09:32:41;2.83;;;1.60;;
19566;SDS011;9930;49.240;8.548;2023-12-20T09:35:07;2.47;;;1.60;;
19566;SDS011;9930;49.240;8.548;2023-12-20T09:37:34;2.90;;;2.00;;
19566;SDS011;9930;49.240;8.548;2023-12-20T09:40:02;4.25;;;2.03;;
19566;SDS011;9930;49.240;8.548;2023-12-20T09:45:14;3.33;;;1.70;;
19566;SDS011;9930;49.240;8.548;2023-12-20T09:47:43;5.80;;;3.67;;
19566;SDS011;9930;49.240;8.548;2023-12-20T09:50:10;4.53;;;3.08;;
19566;SDS011;9930;49.240;8.548;2023-12-20T09:52:38;3.92;;;2.20;;
19566;SDS011;9930;49.240;8.548;2023-12-20T09:55:09;4.07;;;2.00;;
19566;SDS011;9930;49.240;8.548;2023-12-20T09:57:37;2.15;;;1.60;;
19566;SDS011;9930;49.240;8.548;2023-12-20T10:00:05;5.10;;;2.10;;
19566;SDS011;9930;49.240;8.548;2023-12-20T10:02:32;3.20;;;1.85;;
19566;SDS011;9930;49.240;8.548;2023-12-20T10:05:09;3.05;;;2.17;;
19566;SDS011;9930;49.240;8.548;2023-12-20T10:07:44;3.38;;;1.73;;
19566;SDS011;9930;49.240;8.548;2023-12-20T10:10:11;1.98;;;1.58;;
19566;SDS011;9930;49.240;8.548;2023-12-20T10:12:41;5.38;;;2.00;;
19566;SDS011;9930;49.240;8.548;2023-12-20T10:15:37;1.95;;;1.80;;
19566;SDS011;9930;49.240;8.548;2023-12-20T10:18:03;3.17;;;1.95;;
19566;SDS011;9930;49.240;8.548;2023-12-20T10:20:34;5.20;;;1.80;;
19566;SDS011;9930;49.240;8.548;2023-12-20T10:23:03;3.05;;;1.73;;
19566;SDS011;9930;49.240;8.548;2023-12-20T10:25:29;3.58;;;1.98;;
19566;SDS011;9930;49.240;8.548;2023-12-20T10:28:15;3.05;;;1.80;;
19566;SDS011;9930;49.240;8.548;2023-12-20T10:30:47;3.25;;;1.70;;
19566;SDS011;9930;49.240;8.548;2023-12-20T10:33:13;4.05;;;2.30;;
19566;SDS011;9930;49.240;8.548;2023-12-20T10:35:48;4.60;;;2.58;;
19566;SDS011;9930;49.240;8.548;2023-12-20T10:38:15;4.53;;;2.28;;
19566;SDS011;9930;49.240;8.548;2023-12-20T10:40:43;3.75;;;2.13;;
19566;SDS011;9930;49.240;8.548;2023-12-20T10:43:11;3.42;;;2.20;;
19566;SDS011;9930;49.240;8.548;2023-12-20T10:45:41;3.13;;;2.13;;
19566;SDS011;9930;49.240;8.548;2023-12-20T10:48:11;5.20;;;1.95;;
19566;SDS011;9930;49.240;8.548;2023-12-20T10:50:37;2.45;;;1.80;;
19566;SDS011;9930;49.240;8.548;2023-12-20T10:53:05;2.55;;;1.88;;
19566;SDS011;9930;49.240;8.548;2023-12-20T10:55:32;4.07;;;2.22;;
19566;SDS011;9930;49.240;8.548;2023-12-20T10:58:11;3.33;;;2.10;;
19566;SDS011;9930;49.240;8.548;2023-12-20T11:00:39;3.08;;;2.00;;
19566;SDS011;9930;49.240;8.548;2023-12-20T11:03:06;3.25;;;2.13;;
19566;SDS011;9930;49.240;8.548;2023-12-20T11:08:43;4.60;;;2.20;;
19566;SDS011;9930;49.240;8.548;2023-12-20T11:16:36;2.83;;;1.92;;
19566;SDS011;9930;49.240;8.548;2023-12-20T11:19:06;3.90;;;2.33;;
19566;SDS011;9930;49.240;8.548;2023-12-20T11:21:32;3.20;;;2.25;;
19566;SDS011;9930;49.240;8.548;2023-12-20T11:23:59;3.35;;;2.28;;
19566;SDS011;9930;49.240;8.548;2023-12-20T11:26:26;3.03;;;2.08;;
19566;SDS011;9930;49.240;8.548;2023-12-20T11:32:47;3.53;;;2.42;;
19566;SDS011;9930;49.240;8.548;2023-12-20T11:34:56;4.07;;;2.58;;
19566;SDS011;9930;49.240;8.548;2023-12-20T11:37:31;5.15;;;3.33;;
19566;SDS011;9930;49.240;8.548;2023-12-20T11:42:32;3.60;;;2.70;;
19566;SDS011;9930;49.240;8.548;2023-12-20T11:45:14;2.85;;;2.47;;
19566;SDS011;9930;49.240;8.548;2023-12-20T11:47:46;4.00;;;2.53;;
19566;SDS011;9930;49.240;8.548;2023-12-20T11:50:15;4.68;;;2.67;;
19566;SDS011;9930;49.240;8.548;2023-12-20T11:52:44;3.85;;;2.30;;
19566;SDS011;9930;49.240;8.548;2023-12-20T11:55:10;2.83;;;2.20;;
19566;SDS011;9930;49.240;8.548;2023-12-20T11:57:38;4.82;;;2.50;;
19566;SDS011;9930;49.240;8.548;2023-12-20T12:00:04;5.35;;;2.50;;
19566;SDS011;9930;49.240;8.548;2023-12-20T12:02:36;3.28;;;2.40;;
19566;SDS011;9930;49.240;8.548;2023-12-20T12:05:02;5.28;;;2.47;;
19566;SDS011;9930;49.240;8.548;2023-12-20T12:07:33;3.30;;;2.38;;
19566;SDS011;9930;49.240;8.548;2023-12-20T12:10:00;5.10;;;2.67;;
19566;SDS011;9930;49.240;8.548;2023-12-20T12:12:28;4.13;;;2.58;;
19566;SDS011;9930;49.240;8.548;2023-12-20T12:14:55;4.53;;;2.63;;
19566;SDS011;9930;49.240;8.548;2023-12-20T12:17:22;4.20;;;2.72;;
19566;SDS011;9930;49.240;8.548;2023-12-20T12:19:48;4.50;;;2.50;;
19566;SDS011;9930;49.240;8.548;2023-12-20T12:22:14;3.40;;;2.20;;
19566;SDS011;9930;49.240;8.548;2023-12-20T12:24:45;3.78;;;2.50;;
19566;SDS011;9930;49.240;8.548;2023-12-20T12:27:12;4.07;;;2.20;;
19566;SDS011;9930;49.240;8.548;2023-12-20T12:29:38;4.22;;;2.47;;
19566;SDS011;9930;49.240;8.548;2023-12-20T12:32:08;4.28;;;2.22;;
19566;SDS011;9930;49.240;8.548;2023-12-20T12:34:35;4.65;;;2.30;;
19566;SDS011;9930;49.240;8.548;2023-12-20T12:37:03;4.18;;;2.55;;
19566;SDS011;9930;49.240;8.548;2023-12-20T12:39:29;4.47;;;2.35;;
19566;SDS011;9930;49.240;8.548;2023-12-20T12:41:57;3.13;;;2.33;;
19566;SDS011;9930;49.240;8.548;2023-12-20T12:44:23;5.47;;;2.50;;
19566;SDS011;9930;49.240;8.548;2023-12-20T12:46:52;3.75;;;2.22;;
19566;SDS011;9930;49.240;8.548;2023-12-20T12:49:21;5.28;;;2.50;;
19566;SDS011;9930;49.240;8.548;2023-12-20T12:51:49;2.67;;;2.25;;
19566;SDS011;9930;49.240;8.548;2023-12-20T12:54:16;5.00;;;2.50;;
19566;SDS011;9930;49.240;8.548;2023-12-20T12:56:43;5.38;;;2.53;;
19566;SDS011;9930;49.240;8.548;2023-12-20T12:59:12;5.13;;;2.50;;
19566;SDS011;9930;49.240;8.548;2023-12-20T13:01:38;5.47;;;2.65;;
19566;SDS011;9930;49.240;8.548;2023-12-20T13:04:06;5.00;;;2.42;;
19566;SDS011;9930;49.240;8.548;2023-12-20T13:06:38;3.92;;;2.22;;
19566;SDS011;9930;49.240;8.548;2023-12-20T13:09:06;5.50;;;2.70;;
19566;SDS011;9930;49.240;8.548;2023-12-20T13:11:37;4.22;;;2.58;;
19566;SDS011;9930;49.240;8.548;2023-12-20T13:14:02;3.78;;;2.60;;
19566;SDS011;9930;49.240;8.548;2023-12-20T13:16:28;4.47;;;2.55;;
19566;SDS011;9930;49.240;8.548;2023-12-20T13:18:54;4.63;;;2.83;;
19566;SDS011;9930;49.240;8.548;2023-12-20T13:21:22;3.53;;;2.35;;
19566;SDS011;9930;49.240;8.548;2023-12-20T13:23:48;4.15;;;2.40;;
19566;SDS011;9930;49.240;8.548;2023-12-20T13:26:14;3.55;;;2.47;;
19566;SDS011;9930;49.240;8.548;2023-12-20T13:28:44;3.13;;;2.65;;
19566;SDS011;9930;49.240;8.548;2023-12-20T13:31:10;5.65;;;2.70;;
19566;SDS011;9930;49.240;8.548;2023-12-20T13:33:40;4.78;;;2.85;;
19566;SDS011;9930;49.240;8.548;2023-12-20T13:36:07;4.20;;;2.70;;
19566;SDS011;9930;49.240;8.548;2023-12-20T13:38:35;3.75;;;3.03;;
19566;SDS011;9930;49.240;8.548;2023-12-20T13:41:05;2.80;;;2.40;;
19566;SDS011;9930;49.240;8.548;2023-12-20T13:43:33;4.53;;;2.55;;
19566;SDS011;9930;49.240;8.548;2023-12-20T13:46:04;4.85;;;2.35;;
19566;SDS011;9930;49.240;8.548;2023-12-20T13:48:32;3.00;;;2.45;;
19566;SDS011;9930;49.240;8.548;2023-12-20T13:51:04;2.30;;;2.00;;
19566;SDS011;9930;49.240;8.548;2023-12-20T13:53:32;4.70;;;2.33;;
19566;SDS011;9930;49.240;8.548;2023-12-20T13:56:00;4.75;;;2.70;;
19566;SDS011;9930;49.240;8.548;2023-12-20T13:58:28;3.67;;;2.42;;
19566;SDS011;9930;49.240;8.548;2023-12-20T14:00:56;3.25;;;2.20;;
19566;SDS011;9930;49.240;8.548;2023-12-20T14:03:23;3.72;;;2.30;;
19566;SDS011;9930;49.240;8.548;2023-12-20T14:05:51;5.45;;;2.13;;
19566;SDS011;9930;49.240;8.548;2023-12-20T14:08:16;2.88;;;2.03;;
19566;SDS011;9930;49.240;8.548;2023-12-20T14:10:42;3.63;;;2.17;;
19566;SDS011;9930;49.240;8.548;2023-12-20T14:13:10;2.83;;;2.28;;
19566;SDS011;9930;49.240;8.548;2023-12-20T14:15:37;3.78;;;2.42;;
19566;SDS011;9930;49.240;8.548;2023-12-20T14:18:04;3.70;;;2.40;;
19566;SDS011;9930;49.240;8.548;2023-12-20T14:20:35;4.43;;;2.25;;
19566;SDS011;9930;49.240;8.548;2023-12-20T14:23:04;5.68;;;2.28;;
19566;SDS011;9930;49.240;8.548;2023-12-20T14:25:32;3.85;;;2.20;;
19566;SDS011;9930;49.240;8.548;2023-12-20T14:27:58;2.80;;;2.00;;
19566;SDS011;9930;49.240;8.548;2023-12-20T14:30:26;3.70;;;2.50;;
19566;SDS011;9930;49.240;8.548;2023-12-20T14:32:53;3.75;;;2.40;;
19566;SDS011;9930;49.240;8.548;2023-12-20T14:35:19;5.90;;;2.28;;
19566;SDS011;9930;49.240;8.548;2023-12-20T14:37:44;5.72;;;2.90;;
19566;SDS011;9930;49.240;8.548;2023-12-20T14:40:10;4.63;;;2.78;;
19566;SDS011;9930;49.240;8.548;2023-12-20T14:42:40;6.03;;;2.83;;
19566;SDS011;9930;49.240;8.548;2023-12-20T14:45:14;4.15;;;2.45;;
19566;SDS011;9930;49.240;8.548;2023-12-20T14:47:42;3.35;;;2.53;;
19566;SDS011;9930;49.240;8.548;2023-12-20T14:50:13;4.32;;;2.90;;
19566;SDS011;9930;49.240;8.548;2023-12-20T14:52:43;4.35;;;2.20;;
19566;SDS011;9930;49.240;8.548;2023-12-20T14:55:10;3.67;;;2.75;;
19566;SDS011;9930;49.240;8.548;2023-12-20T14:57:37;4.13;;;2.20;;
19566;SDS011;9930;49.240;8.548;2023-12-20T15:00:04;5.35;;;3.13;;
19566;SDS011;9930;49.240;8.548;2023-12-20T15:02:32;2.72;;;2.17;;
19566;SDS011;9930;49.240;8.548;2023-12-20T15:04:59;3.88;;;2.10;;
19566;SDS011;9930;49.240;8.548;2023-12-20T15:07:26;3.92;;;2.33;;
19566;SDS011;9930;49.240;8.548;2023-12-20T15:09:54;3.80;;;1.95;;
19566;SDS011;9930;49.240;8.548;2023-12-20T15:12:20;5.82;;;2.20;;
19566;SDS011;9930;49.240;8.548;2023-12-20T15:14:45;3.63;;;2.13;;
19566;SDS011;9930;49.240;8.548;2023-12-20T15:17:11;3.65;;;2.40;;
19566;SDS011;9930;49.240;8.548;2023-12-20T15:19:37;6.13;;;2.45;;